createdAt,value
2018-08-13T00:01:48.454Z,92453.95
2018-08-13T00:04:19.268Z,92451.45
2018-08-13T00:06:50.033Z,92446.27
2018-08-13T00:09:25.865Z,92446.77
2018-08-13T00:11:56.612Z,92447.95
2018-08-13T00:14:27.402Z,92444.02
2018-08-13T00:16:58.168Z,92447.20
2018-08-13T00:19:29.035Z,92449.42
2018-08-13T00:21:59.840Z,92442.83
2018-08-13T00:24:30.643Z,92441.30
2018-08-13T00:27:01.394Z,92446.55
2018-08-13T00:29:32.316Z,92438.94
2018-08-13T00:32:03.152Z,92443.75
2018-08-13T00:34:33.038Z,92434.86
2018-08-13T00:37:02.849Z,92440.70
2018-08-13T00:39:33.509Z,92446.03
2018-08-13T00:42:03.213Z,92440.34
2018-08-13T00:44:32.868Z,92445.88
2018-08-13T00:47:02.913Z,92442.91
2018-08-13T00:49:32.579Z,92438.36
2018-08-13T00:52:02.311Z,92433.11
2018-08-13T00:54:37.406Z,92427.01
2018-08-13T00:57:07.448Z,92426.73
2018-08-13T00:59:37.312Z,92432.11
2018-08-13T01:02:07.016Z,92431.64
2018-08-13T01:04:36.945Z,92423.68
2018-08-13T01:07:07.001Z,92418.48
2018-08-13T01:09:36.695Z,92425.55
2018-08-13T01:12:06.538Z,92430.00
2018-08-13T01:14:36.194Z,92422.88
2018-08-13T01:17:06.042Z,92415.34
2018-08-13T01:19:35.768Z,92414.30
2018-08-13T01:22:05.805Z,92420.02
2018-08-13T01:24:35.523Z,92413.72
2018-08-13T01:27:05.194Z,92418.30
2018-08-13T01:29:34.854Z,92416.09
2018-08-13T01:32:04.530Z,92410.92
2018-08-13T01:34:34.168Z,92415.75
2018-08-13T01:37:03.901Z,92409.89
2018-08-13T01:39:33.646Z,92410.63
2018-08-13T01:42:08.444Z,92412.89
2018-08-13T01:44:38.912Z,92418.45
2018-08-13T01:47:08.570Z,92421.86
2018-08-13T01:49:38.221Z,92415.13
2018-08-13T01:52:07.944Z,92415.45
2018-08-13T01:54:37.607Z,92412.41
2018-08-13T01:57:07.362Z,92406.00
2018-08-13T01:59:37.419Z,92408.61
2018-08-13T02:02:07.187Z,92406.61
2018-08-13T02:04:36.843Z,92415.69
2018-08-13T02:07:06.844Z,92417.05
2018-08-13T02:09:39.099Z,92415.21
2018-08-13T02:12:13.949Z,92411.07
2018-08-13T02:14:43.606Z,92407.66
2018-08-13T02:17:13.284Z,92414.86
2018-08-13T02:19:43.070Z,92407.25
2018-08-13T02:22:12.773Z,92415.11
2018-08-13T02:24:42.421Z,92411.37
2018-08-13T02:27:12.184Z,92416.80
2018-08-13T02:29:41.830Z,92418.52
2018-08-13T02:32:11.492Z,92412.98
2018-08-13T02:34:41.186Z,92418.19
2018-08-13T02:37:10.839Z,92413.39
2018-08-13T02:39:40.496Z,92416.98
2018-08-13T02:42:10.285Z,92414.65
2018-08-13T02:44:39.923Z,92411.52
2018-08-13T02:47:09.658Z,92414.70
2018-08-13T02:49:39.428Z,92414.33
2018-08-13T02:52:09.140Z,92417.52
2018-08-13T02:54:38.780Z,92416.77
2018-08-13T02:57:10.364Z,92414.95
2018-08-13T02:59:40.084Z,92415.84
2018-08-13T03:02:09.772Z,92413.36
2018-08-13T03:04:39.569Z,92412.25
2018-08-13T03:07:09.475Z,92415.84
2018-08-13T03:09:39.153Z,92419.96
2018-08-13T03:12:08.872Z,92422.64
2018-08-13T03:14:38.528Z,92420.36
2018-08-13T03:17:08.220Z,92421.16
2018-08-13T03:19:41.301Z,92422.55
2018-08-13T03:22:10.936Z,92420.51
2018-08-13T03:24:40.610Z,92429.66
2018-08-13T03:27:10.297Z,92425.70
2018-08-13T03:29:40.324Z,92431.25
2018-08-13T03:32:09.999Z,92423.09
2018-08-13T03:34:40.124Z,92436.06
2018-08-13T03:37:09.913Z,92439.06
2018-08-13T03:39:39.568Z,92437.70
2018-08-13T03:42:09.302Z,92437.14
2018-08-13T03:44:41.875Z,92445.73
2018-08-13T03:47:11.603Z,92445.91
2018-08-13T03:49:41.244Z,92442.28
2018-08-13T03:52:11.578Z,92446.78
2018-08-13T03:54:41.683Z,92448.13
2018-08-13T03:57:12.242Z,92443.79
2018-08-13T03:59:42.516Z,92442.95
2018-08-13T04:02:12.172Z,92442.92
2018-08-13T04:04:41.844Z,92441.40
2018-08-13T04:07:11.544Z,92445.19
2018-08-13T04:09:43.469Z,92446.22
2018-08-13T04:12:14.230Z,92438.55
2018-08-13T04:14:43.859Z,92434.14
2018-08-13T04:17:13.510Z,92433.30
2018-08-13T04:19:43.247Z,92435.43
2018-08-13T04:22:12.880Z,92440.09
2018-08-13T04:24:42.520Z,92436.52
2018-08-13T04:27:12.213Z,92426.84
2018-08-13T04:29:41.853Z,92425.45
2018-08-13T04:32:11.512Z,92423.68
2018-08-13T04:34:42.083Z,92427.05
2018-08-13T04:37:11.727Z,92432.50
2018-08-13T04:39:41.390Z,92423.20
2018-08-13T04:42:11.203Z,92421.22
2018-08-13T04:44:40.862Z,92424.31
2018-08-13T04:47:10.512Z,92425.02
2018-08-13T04:49:40.185Z,92427.03
2018-08-13T04:52:09.891Z,92427.02
2018-08-13T04:54:39.845Z,92426.83
2018-08-13T04:57:09.542Z,92432.16
2018-08-13T04:59:39.267Z,92436.80
2018-08-13T05:02:08.998Z,92432.23
2018-08-13T05:04:38.733Z,92428.66
2018-08-13T05:07:08.396Z,92436.66
2018-08-13T05:09:38.064Z,92438.85
2018-08-13T05:12:07.731Z,92438.34
2018-08-13T05:14:37.388Z,92438.92
2018-08-13T05:17:07.098Z,92447.81
2018-08-13T05:19:36.779Z,92441.48
2018-08-13T05:22:06.834Z,92448.87
2018-08-13T05:24:36.559Z,92444.68
2018-08-13T05:27:06.674Z,92439.55
2018-08-13T05:29:36.713Z,92434.93
2018-08-13T05:32:06.397Z,92435.74
2018-08-13T05:34:36.497Z,92433.03
2018-08-13T05:37:06.159Z,92430.48
2018-08-13T05:39:35.820Z,92431.05
2018-08-13T05:42:05.571Z,92427.38
2018-08-13T05:44:35.257Z,92424.17
2018-08-13T05:47:04.976Z,92423.03
2018-08-13T05:49:34.754Z,92421.09
2018-08-13T05:52:04.540Z,92416.30
2018-08-13T05:54:34.176Z,92420.89
2018-08-13T05:57:03.858Z,92419.88
2018-08-13T05:59:33.519Z,92415.50
2018-08-13T06:02:03.856Z,92419.33
2018-08-13T06:04:33.541Z,92421.11
2018-08-13T06:07:03.576Z,92418.88
2018-08-13T06:09:33.233Z,92417.19
2018-08-13T06:12:03.120Z,92413.12
2018-08-13T06:14:32.781Z,92404.18
2018-08-13T06:17:02.446Z,92398.98
2018-08-13T06:19:32.592Z,92398.34
2018-08-13T06:22:02.292Z,92394.64
2018-08-13T06:24:32.053Z,92390.20
2018-08-13T06:27:01.737Z,92401.16
2018-08-13T06:29:32.330Z,92396.56
2018-08-13T06:32:02.182Z,92388.98
2018-08-13T06:34:31.917Z,92395.63
2018-08-13T06:37:01.927Z,92392.13
2018-08-13T06:39:31.602Z,92386.58
2018-08-13T06:42:01.310Z,92386.06
2018-08-13T06:44:31.190Z,92385.61
2018-08-13T06:47:00.903Z,92393.13
2018-08-13T06:49:30.628Z,92390.48
2018-08-13T06:52:00.294Z,92386.92
2018-08-13T06:54:30.048Z,92388.16
2018-08-13T06:56:59.764Z,92389.18
2018-08-13T06:59:29.429Z,92385.61
2018-08-13T07:01:59.078Z,92386.42
2018-08-13T07:04:29.250Z,92384.19
2018-08-13T07:06:58.890Z,92380.09
2018-08-13T07:09:29.149Z,92386.72
2018-08-13T07:11:59.128Z,92378.06
2018-08-13T07:14:28.808Z,92374.81
2018-08-13T07:16:58.532Z,92374.66
2018-08-13T07:19:28.350Z,92377.30
2018-08-13T07:21:58.093Z,92372.06
2018-08-13T07:24:28.076Z,92376.80
2018-08-13T07:27:01.266Z,92373.56
2018-08-13T07:29:30.947Z,92369.20
2018-08-13T07:32:00.997Z,92368.65
2018-08-13T07:34:30.951Z,92365.64
2018-08-13T07:37:00.614Z,92373.59
2018-08-13T07:39:30.411Z,92367.16
2018-08-13T07:42:00.257Z,92368.69
2018-08-13T07:44:29.945Z,92367.23
2018-08-13T07:46:59.589Z,92370.45
2018-08-13T07:49:29.292Z,92366.52
2018-08-13T07:51:58.936Z,92361.73
2018-08-13T07:54:28.657Z,92361.08
2018-08-13T07:56:58.427Z,92363.55
2018-08-13T07:59:28.090Z,92354.40
2018-08-13T08:01:57.732Z,92358.01
2018-08-13T08:04:27.830Z,92349.97
2018-08-13T08:06:57.599Z,92342.59
2018-08-13T08:09:27.248Z,92351.35
2018-08-13T08:11:56.955Z,92346.88
2018-08-13T08:14:26.731Z,92343.20
2018-08-13T08:16:56.396Z,92340.52
2018-08-13T08:19:26.919Z,92336.75
2018-08-13T08:21:56.588Z,92331.78
2018-08-13T08:24:26.319Z,92329.34
2018-08-13T08:26:56.072Z,92330.72
2018-08-13T08:29:25.853Z,92322.96
2018-08-13T08:31:55.605Z,92324.41
2018-08-13T08:34:25.301Z,92318.09
2018-08-13T08:36:55.173Z,92315.08
2018-08-13T08:39:24.829Z,92305.78
2018-08-13T08:41:54.620Z,92305.63
2018-08-13T08:44:24.327Z,92302.36
2018-08-13T08:46:54.011Z,92296.45
2018-08-13T08:49:23.700Z,92295.25
2018-08-13T08:51:53.357Z,92292.03
2018-08-13T08:54:23.053Z,92290.20
2018-08-13T08:56:52.772Z,92286.20
2018-08-13T08:59:22.462Z,92279.87
2018-08-13T09:01:52.109Z,92274.64
2018-08-13T09:04:21.867Z,92275.62
2018-08-13T09:06:51.532Z,92277.14
2018-08-13T09:09:21.255Z,92274.57
2018-08-13T09:11:55.304Z,92270.28
2018-08-13T09:14:25.389Z,92268.41
2018-08-13T09:16:55.438Z,92266.59
2018-08-13T09:19:30.442Z,92263.95
2018-08-13T09:22:11.397Z,92261.16
2018-08-13T09:24:46.620Z,92262.14
2018-08-13T09:27:21.577Z,92258.58
2018-08-13T09:29:56.627Z,92258.69
2018-08-13T09:32:33.907Z,92253.69
2018-08-13T09:35:11.344Z,92255.52
2018-08-13T09:37:41.042Z,92260.01
2018-08-13T09:40:10.976Z,92258.77
2018-08-13T09:42:41.157Z,92250.59
2018-08-13T09:45:11.200Z,92249.44
2018-08-13T09:47:41.664Z,92257.22
2018-08-13T09:50:12.646Z,92249.36
2018-08-13T09:52:42.942Z,92252.42
2018-08-13T09:55:13.447Z,92250.92
2018-08-13T09:57:44.042Z,92243.45
2018-08-13T10:00:19.643Z,92236.53
2018-08-13T10:02:49.958Z,92237.69
2018-08-13T10:05:20.068Z,92237.89
2018-08-13T10:07:49.721Z,92234.16
2018-08-13T10:10:19.521Z,92227.13
2018-08-13T10:12:49.394Z,92217.89
2018-08-13T10:15:19.436Z,92214.51
2018-08-13T10:17:49.089Z,92217.86
2018-08-13T10:20:20.016Z,92202.78
2018-08-13T10:22:49.766Z,92197.94
2018-08-13T10:25:19.452Z,92199.86
2018-08-13T10:27:49.532Z,92203.58
2018-08-13T10:30:19.175Z,92191.28
2018-08-13T10:32:48.852Z,92187.40
2018-08-13T10:35:18.556Z,92186.77
2018-08-13T10:37:48.221Z,92188.84
2018-08-13T10:40:19.120Z,92183.86
2018-08-13T10:42:49.103Z,92190.06
2018-08-13T10:45:18.823Z,92185.22
2018-08-13T10:47:48.548Z,92179.01
2018-08-13T10:50:18.199Z,92168.09
2018-08-13T10:52:47.895Z,92170.12
2018-08-13T10:55:17.665Z,92170.12
2018-08-13T10:57:47.344Z,92161.14
2018-08-13T11:00:17.202Z,92168.07
2018-08-13T11:02:47.156Z,92162.50
2018-08-13T11:05:17.141Z,92163.93
2018-08-13T11:07:46.984Z,92159.77
2018-08-13T11:10:16.956Z,92159.05
2018-08-13T11:12:48.520Z,92154.92
2018-08-13T11:15:19.480Z,92154.79
2018-08-13T11:17:49.169Z,92156.78
2018-08-13T11:20:18.832Z,92149.93
2018-08-13T11:22:48.642Z,92143.67
2018-08-13T11:25:18.435Z,92145.78
2018-08-13T11:27:48.258Z,92140.34
2018-08-13T11:30:18.102Z,92141.66
2018-08-13T11:32:48.182Z,92139.37
2018-08-13T11:35:17.852Z,92138.61
2018-08-13T11:37:47.611Z,92128.20
2018-08-13T11:40:18.140Z,92127.45
2018-08-13T11:42:47.836Z,92127.44
2018-08-13T11:45:17.593Z,92131.15
2018-08-13T11:47:47.275Z,92122.19
2018-08-13T11:50:18.216Z,92129.02
2018-08-13T11:52:49.023Z,92134.49
2018-08-13T11:55:19.317Z,92126.33
2018-08-13T11:57:50.073Z,92124.22
2018-08-13T12:00:19.842Z,92120.84
2018-08-13T12:02:49.772Z,92117.34
2018-08-13T12:05:19.485Z,92114.61
2018-08-13T12:07:49.564Z,92111.17
2018-08-13T12:10:19.323Z,92109.06
2018-08-13T12:12:49.130Z,92105.48
2018-08-13T12:15:18.918Z,92104.13
2018-08-13T12:17:48.660Z,92094.23
2018-08-13T12:20:19.541Z,92092.28
2018-08-13T12:22:49.379Z,92090.52
2018-08-13T12:25:21.797Z,92088.97
2018-08-13T12:27:51.658Z,92092.77
2018-08-13T12:30:21.538Z,92093.51
2018-08-13T12:32:51.452Z,92087.33
2018-08-13T12:35:21.298Z,92085.52
2018-08-13T12:37:51.375Z,92087.23
2018-08-13T12:40:21.156Z,92075.33
2018-08-13T12:42:50.887Z,92078.25
2018-08-13T12:45:20.552Z,92077.34
2018-08-13T12:47:55.995Z,92081.20
2018-08-13T12:50:25.709Z,92079.84
2018-08-13T12:52:55.376Z,92075.34
2018-08-13T12:55:25.099Z,92076.14
2018-08-13T12:57:54.847Z,92070.70
2018-08-13T13:00:24.525Z,92074.31
2018-08-13T13:02:54.416Z,92071.91
2018-08-13T13:05:24.127Z,92063.97
2018-08-13T13:07:53.845Z,92063.17
2018-08-13T13:10:23.597Z,92061.59
2018-08-13T13:12:53.342Z,92061.68
2018-08-13T13:15:23.025Z,92055.95
2018-08-13T13:17:53.105Z,92050.64
2018-08-13T13:20:23.867Z,92054.95
2018-08-13T13:22:53.725Z,92054.73
2018-08-13T13:25:23.433Z,92051.84
2018-08-13T13:27:53.107Z,92051.86
2018-08-13T13:30:22.805Z,92038.62
2018-08-13T13:32:52.963Z,92041.50
2018-08-13T13:35:22.655Z,92049.08
2018-08-13T13:37:52.322Z,92049.42
2018-08-13T13:40:22.059Z,92038.77
2018-08-13T13:42:54.639Z,92040.45
2018-08-13T13:45:24.721Z,92039.25
2018-08-13T13:47:54.433Z,92039.33
2018-08-13T13:50:24.116Z,92032.08
2018-08-13T13:52:54.230Z,92035.26
2018-08-13T13:55:23.925Z,92030.48
2018-08-13T13:57:53.590Z,92029.16
2018-08-13T14:00:25.821Z,92031.27
2018-08-13T14:02:55.462Z,92022.65
2018-08-13T14:05:26.425Z,92023.02
2018-08-13T14:07:57.219Z,92025.31
2018-08-13T14:10:28.187Z,92022.36
2018-08-13T14:12:59.083Z,92018.14
2018-08-13T14:15:29.936Z,92021.06
2018-08-13T14:18:00.757Z,92014.56
2018-08-13T14:20:31.591Z,92017.23
2018-08-13T14:23:02.458Z,92016.34
2018-08-13T14:25:36.044Z,92014.50
2018-08-13T14:28:07.295Z,92015.53
2018-08-13T14:30:38.623Z,92012.20
2018-08-13T14:33:09.443Z,92009.52
2018-08-13T14:35:40.274Z,91996.97
2018-08-13T14:38:11.148Z,92004.92
2018-08-13T14:40:42.277Z,92002.55
2018-08-13T14:43:13.128Z,92001.11
2018-08-13T14:45:44.307Z,92001.64
2018-08-13T14:48:15.097Z,92001.24
2018-08-13T14:50:45.947Z,92002.95
2018-08-13T14:53:16.791Z,91997.36
2018-08-13T14:55:47.690Z,92001.86
2018-08-13T14:58:18.553Z,91999.33
2018-08-13T15:00:49.818Z,92003.63
2018-08-13T15:03:20.630Z,91998.61
2018-08-13T15:05:51.453Z,91998.50
2018-08-13T15:08:22.432Z,92001.34
2018-08-13T15:18:04.388Z,91989.97
2018-08-13T15:20:35.207Z,91994.90
2018-08-13T15:23:06.117Z,91994.75
2018-08-13T15:25:37.020Z,91992.33
2018-08-13T15:28:08.523Z,91990.43
2018-08-13T15:30:39.362Z,91993.24
2018-08-13T15:33:10.539Z,91981.49
2018-08-13T15:35:41.342Z,91980.11
2018-08-13T15:38:15.066Z,91980.80
2018-08-13T15:40:45.916Z,91979.38
2018-08-13T15:43:16.799Z,91986.99
2018-08-13T15:45:47.584Z,91975.91
2018-08-13T15:48:18.402Z,91982.81
2018-08-13T15:50:49.177Z,91983.45
2018-08-13T15:53:20.001Z,91980.59
2018-08-13T15:55:50.805Z,91977.14
2018-08-13T15:58:21.681Z,91979.16
2018-08-13T16:00:52.883Z,91974.89
2018-08-13T16:03:24.218Z,91981.89
2018-08-13T16:05:55.034Z,91974.86
2018-08-13T16:08:25.999Z,91974.95
2018-08-13T16:10:56.780Z,91972.11
2018-08-13T16:13:27.702Z,91969.34
2018-08-13T16:15:58.607Z,91976.90
2018-08-13T16:18:33.316Z,91975.46
2018-08-13T16:21:04.154Z,91975.34
2018-08-13T16:23:34.992Z,91987.08
2018-08-13T16:26:05.892Z,91990.36
2018-08-13T16:28:36.761Z,91984.70
2018-08-13T16:31:07.589Z,91985.23
2018-08-13T16:33:38.426Z,91985.66
2018-08-13T16:36:09.526Z,91991.64
2018-08-13T16:38:40.369Z,91998.31
2018-08-13T16:41:11.154Z,92003.06
2018-08-13T16:43:41.964Z,92004.42
2018-08-13T16:46:12.807Z,92005.61
2018-08-13T16:48:43.629Z,92006.19
2018-08-13T16:51:14.798Z,92012.82
2018-08-13T16:53:57.356Z,92013.23
2018-08-13T16:56:28.151Z,92016.64
2018-08-13T16:58:59.172Z,92022.77
2018-08-13T17:01:30.135Z,92023.29
2018-08-13T17:04:00.981Z,92027.47
2018-08-13T17:06:31.797Z,92039.67
2018-08-13T17:09:03.168Z,92032.89
2018-08-13T17:11:34.761Z,92047.89
2018-08-13T17:14:10.173Z,92051.56
2018-08-13T17:16:43.223Z,92047.73
2018-08-13T17:19:14.192Z,92042.56
2018-08-13T17:21:45.132Z,92050.89
2018-08-13T17:24:16.724Z,92060.07
2018-08-13T17:26:47.945Z,92063.86
2018-08-13T17:29:18.873Z,92064.69
2018-08-13T17:31:49.704Z,92067.76
2018-08-13T17:34:20.563Z,92072.97
2018-08-13T17:36:51.440Z,92073.64
2018-08-13T17:39:22.401Z,92078.62
2018-08-13T17:41:53.629Z,92080.70
2018-08-13T17:44:24.853Z,92082.09
2018-08-13T17:46:55.679Z,92090.02
2018-08-13T17:49:26.550Z,92096.70
2018-08-13T17:51:57.388Z,92098.42
2018-08-13T17:54:28.254Z,92098.81
2018-08-13T17:56:59.146Z,92090.14
2018-08-13T17:59:30.149Z,92098.53
2018-08-13T18:02:01.454Z,92099.71
2018-08-13T18:04:32.341Z,92101.98
2018-08-13T18:07:03.312Z,92111.34
2018-08-13T18:09:34.204Z,92115.45
2018-08-13T18:12:06.266Z,92120.16
2018-08-13T18:14:37.310Z,92118.87
2018-08-13T18:17:08.533Z,92126.35
2018-08-13T18:19:39.578Z,92127.14
2018-08-13T18:22:10.858Z,92135.75
2018-08-13T18:24:41.748Z,92135.23
2018-08-13T18:27:12.625Z,92135.05
2018-08-13T18:29:43.532Z,92147.05
2018-08-13T18:32:14.445Z,92149.70
2018-08-13T18:34:51.934Z,92154.86
2018-08-13T18:37:24.163Z,92157.31
2018-08-13T18:39:56.299Z,92153.94
2018-08-13T18:42:28.281Z,92156.53
2018-08-13T18:48:11.063Z,92165.91
2018-08-13T18:50:43.711Z,92160.62
2018-08-13T18:53:16.472Z,92159.77
2018-08-13T18:55:47.401Z,92161.09
2018-08-13T18:58:18.185Z,92159.80
2018-08-13T19:00:53.523Z,92164.33
2018-08-13T19:03:24.523Z,92161.56
2018-08-13T19:06:07.615Z,92168.92
2018-08-13T19:08:38.428Z,92162.36
2018-08-13T19:11:09.453Z,92166.61
2018-08-13T19:13:40.305Z,92169.38
2018-08-13T19:16:11.188Z,92167.75
2018-08-13T19:18:48.287Z,92174.34
2018-08-13T19:21:19.181Z,92178.08
2018-08-13T19:23:50.097Z,92178.02
2018-08-13T19:26:20.920Z,92170.53
2018-08-13T19:28:52.328Z,92177.20
2018-08-13T19:31:23.180Z,92169.12
2018-08-13T19:33:54.403Z,92171.80
2018-08-13T19:36:25.446Z,92170.27
2018-08-13T19:38:57.031Z,92170.66
2018-08-13T19:41:27.896Z,92165.03
2018-08-13T19:43:58.785Z,92169.25
2018-08-13T19:46:32.933Z,92171.48
2018-08-13T19:49:14.668Z,92173.30
2018-08-13T19:51:46.628Z,92190.90
2018-08-13T19:54:18.184Z,92191.67
2018-08-13T19:56:49.034Z,92188.70
2018-08-13T19:59:25.481Z,92187.49
2018-08-13T20:02:01.661Z,92190.44
2018-08-13T20:04:37.343Z,92193.73
2018-08-13T20:07:14.100Z,92195.46
2018-08-13T20:09:49.883Z,92197.75
2018-08-13T20:12:25.818Z,92200.61
2018-08-13T20:15:01.607Z,92200.17
2018-08-13T20:17:37.653Z,92205.27
2018-08-13T20:20:16.124Z,92209.33
2018-08-13T20:22:52.198Z,92207.88
2018-08-13T20:25:28.462Z,92207.61
2018-08-13T20:28:04.489Z,92202.75
2018-08-13T20:30:40.427Z,92207.79
2018-08-13T20:33:16.320Z,92205.45
2018-08-13T20:35:52.093Z,92209.05
2018-08-13T20:38:28.050Z,92213.80
2018-08-13T20:41:03.938Z,92219.44
2018-08-13T20:43:39.865Z,92215.68
2018-08-13T20:46:15.664Z,92220.31
2018-08-13T20:48:51.574Z,92221.63
2018-08-13T20:51:27.836Z,92224.89
2018-08-13T20:54:04.193Z,92225.91
2018-08-13T20:56:40.019Z,92228.69
2018-08-13T20:59:15.912Z,92229.98
2018-08-13T21:01:52.166Z,92231.88
2018-08-13T21:04:28.038Z,92234.92
2018-08-13T21:07:03.860Z,92229.57
2018-08-13T21:09:39.857Z,92221.23
2018-08-13T21:12:15.698Z,92221.65
2018-08-13T21:14:51.564Z,92223.03
2018-08-13T21:17:27.370Z,92230.13
2018-08-13T21:20:03.225Z,92226.80
2018-08-13T21:22:39.350Z,92227.19
2018-08-13T21:25:15.350Z,92231.63
2018-08-13T21:27:51.568Z,92229.06
2018-08-13T21:30:27.740Z,92233.20
2018-08-13T21:33:03.691Z,92238.00
2018-08-13T21:35:39.481Z,92232.51
2018-08-13T21:38:15.538Z,92237.06
2018-08-13T21:40:51.473Z,92229.63
2018-08-13T21:43:28.949Z,92226.48
2018-08-13T21:46:04.793Z,92233.25
2018-08-13T21:48:40.528Z,92232.93
2018-08-13T21:51:17.081Z,92232.27
2018-08-13T21:53:52.707Z,92233.34
2018-08-13T21:56:28.473Z,92236.91
2018-08-13T21:59:04.332Z,92236.57
2018-08-13T22:01:45.600Z,92229.91
2018-08-13T22:04:21.379Z,92231.71
2018-08-13T22:06:57.176Z,92230.41
2018-08-13T22:09:33.985Z,92239.17
2018-08-13T22:12:14.938Z,92234.95
2018-08-13T22:14:50.965Z,92233.71
2018-08-13T22:17:26.935Z,92232.45
2018-08-13T22:20:02.876Z,92238.77
2018-08-13T22:22:38.822Z,92240.34
2018-08-13T22:25:17.000Z,92233.30
2018-08-13T22:27:53.172Z,92234.50
2018-08-13T22:30:29.897Z,92231.99
2018-08-13T22:33:06.316Z,92227.69
2018-08-13T22:35:42.484Z,92229.91
2018-08-13T22:38:18.649Z,92228.48
2018-08-13T22:40:54.653Z,92227.80
2018-08-13T22:43:30.716Z,92219.44
2018-08-13T22:46:06.921Z,92220.28
2018-08-13T22:48:43.134Z,92225.14
2018-08-13T22:51:19.065Z,92226.37
2018-08-13T22:53:55.322Z,92216.45
2018-08-13T22:56:31.105Z,92210.58
2018-08-13T22:59:06.887Z,92205.75
2018-08-13T23:01:42.785Z,92206.69
2018-08-13T23:04:18.648Z,92208.39
2018-08-13T23:06:54.576Z,92208.71
2018-08-13T23:09:30.422Z,92207.60
2018-08-13T23:12:09.828Z,92205.64
2018-08-13T23:14:46.468Z,92207.38
2018-08-13T23:17:22.289Z,92205.31
2018-08-13T23:19:58.097Z,92202.96
2018-08-13T23:22:44.544Z,92199.89
2018-08-13T23:25:20.731Z,92203.58
2018-08-13T23:27:57.691Z,92199.88
2018-08-13T23:30:34.037Z,92204.61
2018-08-13T23:33:10.179Z,92202.76
2018-08-13T23:35:46.101Z,92199.36
2018-08-13T23:38:22.134Z,92201.55
2018-08-13T23:40:58.113Z,92200.17
2018-08-13T23:43:34.430Z,92201.72
2018-08-13T23:46:10.592Z,92202.71
2018-08-13T23:48:46.784Z,92202.20
2018-08-13T23:51:22.767Z,92194.49
2018-08-13T23:53:59.637Z,92189.80
2018-08-13T23:56:35.848Z,92194.72
2018-08-13T23:59:11.670Z,92186.91
